sensor_id;sensor_type;location;lat;lon;timestamp;P1;durP1;ratioP1;P2;durP2;ratioP2
68507;SDS011;55510;49.560;19.090;2024-01-16T03:39:31;6.65;;;2.95;;
68507;SDS011;55510;49.560;19.090;2024-01-16T03:42:32;12.68;;;4.00;;
68507;SDS011;55510;49.560;19.090;2024-01-16T03:45:32;18.77;;;5.50;;
68507;SDS011;55510;49.560;19.090;2024-01-16T03:48:33;12.10;;;3.53;;
68507;SDS011;55510;49.560;19.090;2024-01-16T03:51:34;13.13;;;4.20;;
68507;SDS011;55510;49.560;19.090;2024-01-16T03:54:35;13.20;;;4.20;;
68507;SDS011;55510;49.560;19.090;2024-01-16T03:57:35;23.88;;;7.75;;
68507;SDS011;55510;49.560;19.090;2024-01-16T04:00:36;21.30;;;8.13;;
68507;SDS011;55510;49.560;19.090;2024-01-16T04:03:36;13.93;;;5.80;;
68507;SDS011;55510;49.560;19.090;2024-01-16T04:06:38;13.50;;;5.70;;
68507;SDS011;55510;49.560;19.090;2024-01-16T04:09:39;7.97;;;3.67;;
68507;SDS011;55510;49.560;19.090;2024-01-16T04:12:40;8.63;;;2.70;;
68507;SDS011;55510;49.560;19.090;2024-01-16T04:15:40;5.90;;;2.03;;
68507;SDS011;55510;49.560;19.090;2024-01-16T04:18:42;7.07;;;2.17;;
68507;SDS011;55510;49.560;19.090;2024-01-16T04:21:43;8.68;;;2.30;;
68507;SDS011;55510;49.560;19.090;2024-01-16T04:24:44;9.55;;;3.05;;
68507;SDS011;55510;49.560;19.090;2024-01-16T04:27:45;10.67;;;3.47;;
68507;SDS011;55510;49.560;19.090;2024-01-16T04:30:46;7.57;;;2.08;;
68507;SDS011;55510;49.560;19.090;2024-01-16T04:33:46;3.40;;;0.63;;
68507;SDS011;55510;49.560;19.090;2024-01-16T04:36:47;4.00;;;1.40;;
68507;SDS011;55510;49.560;19.090;2024-01-16T04:39:48;4.63;;;1.57;;
68507;SDS011;55510;49.560;19.090;2024-01-16T04:42:49;4.15;;;1.05;;
68507;SDS011;55510;49.560;19.090;2024-01-16T04:45:49;5.47;;;2.33;;
68507;SDS011;55510;49.560;19.090;2024-01-16T04:48:50;5.00;;;1.97;;
68507;SDS011;55510;49.560;19.090;2024-01-16T04:51:51;3.17;;;0.77;;
68507;SDS011;55510;49.560;19.090;2024-01-16T04:54:51;2.97;;;1.03;;
68507;SDS011;55510;49.560;19.090;2024-01-16T04:57:54;4.43;;;0.93;;
68507;SDS011;55510;49.560;19.090;2024-01-16T05:00:55;4.38;;;1.50;;
68507;SDS011;55510;49.560;19.090;2024-01-16T05:03:55;4.50;;;1.70;;
68507;SDS011;55510;49.560;19.090;2024-01-16T05:06:56;5.20;;;1.67;;
68507;SDS011;55510;49.560;19.090;2024-01-16T05:09:56;3.57;;;1.20;;
68507;SDS011;55510;49.560;19.090;2024-01-16T05:12:58;2.83;;;0.85;;
68507;SDS011;55510;49.560;19.090;2024-01-16T05:15:59;5.67;;;1.87;;
68507;SDS011;55510;49.560;19.090;2024-01-16T05:18:59;7.87;;;1.70;;
68507;SDS011;55510;49.560;19.090;2024-01-16T05:22:00;6.82;;;2.80;;
68507;SDS011;55510;49.560;19.090;2024-01-16T05:25:01;5.80;;;2.30;;
68507;SDS011;55510;49.560;19.090;2024-01-16T05:28:01;5.78;;;1.63;;
68507;SDS011;55510;49.560;19.090;2024-01-16T05:31:02;5.80;;;1.70;;
68507;SDS011;55510;49.560;19.090;2024-01-16T05:34:03;4.27;;;1.00;;
68507;SDS011;55510;49.560;19.090;2024-01-16T05:37:04;4.93;;;1.75;;
68507;SDS011;55510;49.560;19.090;2024-01-16T05:40:05;6.10;;;2.00;;
68507;SDS011;55510;49.560;19.090;2024-01-16T05:43:08;5.65;;;1.77;;
68507;SDS011;55510;49.560;19.090;2024-01-16T05:46:08;4.37;;;1.23;;
68507;SDS011;55510;49.560;19.090;2024-01-16T05:49:11;5.30;;;3.03;;
68507;SDS011;55510;49.560;19.090;2024-01-16T05:52:11;6.57;;;1.80;;
68507;SDS011;55510;49.560;19.090;2024-01-16T05:55:12;4.43;;;1.50;;
68507;SDS011;55510;49.560;19.090;2024-01-16T05:58:13;3.57;;;1.27;;
68507;SDS011;55510;49.560;19.090;2024-01-16T06:01:13;7.75;;;2.30;;
68507;SDS011;55510;49.560;19.090;2024-01-16T06:04:14;10.30;;;3.20;;
68507;SDS011;55510;49.560;19.090;2024-01-16T06:07:15;16.70;;;3.53;;
68507;SDS011;55510;49.560;19.090;2024-01-16T06:10:16;5.37;;;1.47;;
68507;SDS011;55510;49.560;19.090;2024-01-16T06:13:18;12.40;;;5.00;;
68507;SDS011;55510;49.560;19.090;2024-01-16T06:16:19;17.50;;;9.43;;
68507;SDS011;55510;49.560;19.090;2024-01-16T06:19:19;23.63;;;11.07;;
68507;SDS011;55510;49.560;19.090;2024-01-16T06:22:21;12.07;;;5.23;;
68507;SDS011;55510;49.560;19.090;2024-01-16T06:25:22;7.03;;;2.33;;
68507;SDS011;55510;49.560;19.090;2024-01-16T06:28:22;11.53;;;3.30;;
68507;SDS011;55510;49.560;19.090;2024-01-16T06:31:23;5.00;;;2.40;;
68507;SDS011;55510;49.560;19.090;2024-01-16T06:34:27;5.60;;;1.63;;
68507;SDS011;55510;49.560;19.090;2024-01-16T06:37:28;7.80;;;2.38;;
68507;SDS011;55510;49.560;19.090;2024-01-16T06:40:28;9.73;;;2.72;;
68507;SDS011;55510;49.560;19.090;2024-01-16T06:43:29;18.10;;;6.97;;
68507;SDS011;55510;49.560;19.090;2024-01-16T06:46:30;47.30;;;16.07;;
68507;SDS011;55510;49.560;19.090;2024-01-16T06:49:30;47.93;;;13.73;;
68507;SDS011;55510;49.560;19.090;2024-01-16T06:52:31;35.73;;;9.77;;
68507;SDS011;55510;49.560;19.090;2024-01-16T06:55:32;14.30;;;3.22;;
68507;SDS011;55510;49.560;19.090;2024-01-16T06:58:32;10.57;;;3.03;;
68507;SDS011;55510;49.560;19.090;2024-01-16T07:01:33;9.55;;;2.85;;
68507;SDS011;55510;49.560;19.090;2024-01-16T07:04:33;18.57;;;6.13;;
68507;SDS011;55510;49.560;19.090;2024-01-16T07:07:34;15.35;;;4.75;;
68507;SDS011;55510;49.560;19.090;2024-01-16T07:10:35;14.33;;;4.50;;
68507;SDS011;55510;49.560;19.090;2024-01-16T07:13:36;11.02;;;3.72;;
68507;SDS011;55510;49.560;19.090;2024-01-16T07:16:37;16.90;;;5.80;;
68507;SDS011;55510;49.560;19.090;2024-01-16T07:19:37;10.70;;;4.00;;
68507;SDS011;55510;49.560;19.090;2024-01-16T07:22:38;14.70;;;5.27;;
68507;SDS011;55510;49.560;19.090;2024-01-16T07:25:42;20.23;;;6.55;;
68507;SDS011;55510;49.560;19.090;2024-01-16T07:28:42;19.97;;;8.03;;
68507;SDS011;55510;49.560;19.090;2024-01-16T07:31:44;12.55;;;5.18;;
68507;SDS011;55510;49.560;19.090;2024-01-16T07:34:45;13.68;;;5.70;;
68507;SDS011;55510;49.560;19.090;2024-01-16T07:37:45;10.10;;;4.80;;
68507;SDS011;55510;49.560;19.090;2024-01-16T07:40:46;8.63;;;3.60;;
68507;SDS011;55510;49.560;19.090;2024-01-16T07:43:47;6.57;;;2.73;;
68507;SDS011;55510;49.560;19.090;2024-01-16T07:46:47;9.13;;;2.53;;
68507;SDS011;55510;49.560;19.090;2024-01-16T07:49:48;10.40;;;3.90;;
68507;SDS011;55510;49.560;19.090;2024-01-16T07:52:48;12.53;;;4.03;;
68507;SDS011;55510;49.560;19.090;2024-01-16T07:55:49;8.87;;;2.40;;
68507;SDS011;55510;49.560;19.090;2024-01-16T07:58:50;9.13;;;3.67;;
68507;SDS011;55510;49.560;19.090;2024-01-16T08:01:50;9.20;;;3.20;;
68507;SDS011;55510;49.560;19.090;2024-01-16T08:04:51;9.38;;;2.92;;
68507;SDS011;55510;49.560;19.090;2024-01-16T08:07:52;8.37;;;3.27;;
68507;SDS011;55510;49.560;19.090;2024-01-16T08:10:52;6.60;;;2.40;;
68507;SDS011;55510;49.560;19.090;2024-01-16T08:13:53;8.32;;;3.08;;
68507;SDS011;55510;49.560;19.090;2024-01-16T08:16:57;9.33;;;3.57;;
68507;SDS011;55510;49.560;19.090;2024-01-16T08:19:57;6.47;;;1.90;;
68507;SDS011;55510;49.560;19.090;2024-01-16T08:22:58;8.77;;;3.80;;
68507;SDS011;55510;49.560;19.090;2024-01-16T08:25:59;14.80;;;9.25;;
68507;SDS011;55510;49.560;19.090;2024-01-16T08:29:01;11.95;;;3.40;;
68507;SDS011;55510;49.560;19.090;2024-01-16T08:32:01;8.07;;;3.00;;
68507;SDS011;55510;49.560;19.090;2024-01-16T08:35:02;25.60;;;6.97;;
68507;SDS011;55510;49.560;19.090;2024-01-16T08:38:03;9.60;;;3.20;;
68507;SDS011;55510;49.560;19.090;2024-01-16T08:41:04;10.48;;;2.50;;
68507;SDS011;55510;49.560;19.090;2024-01-16T08:44:06;6.70;;;2.88;;
68507;SDS011;55510;49.560;19.090;2024-01-16T08:47:07;14.07;;;5.57;;
68507;SDS011;55510;49.560;19.090;2024-01-16T08:50:08;6.65;;;3.00;;
68507;SDS011;55510;49.560;19.090;2024-01-16T08:53:09;6.90;;;2.65;;
68507;SDS011;55510;49.560;19.090;2024-01-16T08:56:10;8.90;;;2.67;;
68507;SDS011;55510;49.560;19.090;2024-01-16T08:59:12;14.53;;;5.57;;
68507;SDS011;55510;49.560;19.090;2024-01-16T09:02:13;6.75;;;1.65;;
68507;SDS011;55510;49.560;19.090;2024-01-16T09:05:13;9.57;;;3.10;;
68507;SDS011;55510;49.560;19.090;2024-01-16T09:08:15;13.35;;;4.38;;
68507;SDS011;55510;49.560;19.090;2024-01-16T09:11:15;7.53;;;2.83;;
68507;SDS011;55510;49.560;19.090;2024-01-16T09:14:16;9.68;;;3.53;;
68507;SDS011;55510;49.560;19.090;2024-01-16T09:17:17;11.17;;;4.50;;
68507;SDS011;55510;49.560;19.090;2024-01-16T09:20:18;7.50;;;1.83;;
68507;SDS011;55510;49.560;19.090;2024-01-16T09:23:18;10.80;;;4.67;;
68507;SDS011;55510;49.560;19.090;2024-01-16T09:26:19;6.93;;;2.75;;
68507;SDS011;55510;49.560;19.090;2024-01-16T09:29:21;5.53;;;1.87;;
68507;SDS011;55510;49.560;19.090;2024-01-16T09:32:25;13.60;;;5.23;;
68507;SDS011;55510;49.560;19.090;2024-01-16T09:35:25;10.10;;;3.28;;
68507;SDS011;55510;49.560;19.090;2024-01-16T09:38:26;12.47;;;3.90;;
68507;SDS011;55510;49.560;19.090;2024-01-16T09:41:27;15.60;;;5.30;;
68507;SDS011;55510;49.560;19.090;2024-01-16T09:44:28;22.23;;;5.90;;
68507;SDS011;55510;49.560;19.090;2024-01-16T09:47:32;19.33;;;5.00;;
68507;SDS011;55510;49.560;19.090;2024-01-16T09:50:34;9.52;;;2.38;;
68507;SDS011;55510;49.560;19.090;2024-01-16T09:53:35;7.00;;;1.88;;
68507;SDS011;55510;49.560;19.090;2024-01-16T09:56:41;12.70;;;3.10;;
68507;SDS011;55510;49.560;19.090;2024-01-16T09:59:46;9.97;;;4.07;;
68507;SDS011;55510;49.560;19.090;2024-01-16T10:02:48;13.90;;;3.72;;
68507;SDS011;55510;49.560;19.090;2024-01-16T10:05:50;18.02;;;5.07;;
68507;SDS011;55510;49.560;19.090;2024-01-16T10:08:51;8.35;;;2.63;;
68507;SDS011;55510;49.560;19.090;2024-01-16T10:11:52;13.73;;;4.27;;
68507;SDS011;55510;49.560;19.090;2024-01-16T10:14:53;9.05;;;2.88;;
68507;SDS011;55510;49.560;19.090;2024-01-16T10:17:55;12.52;;;2.17;;
68507;SDS011;55510;49.560;19.090;2024-01-16T10:20:56;9.23;;;2.10;;
68507;SDS011;55510;49.560;19.090;2024-01-16T10:23:57;13.13;;;2.73;;
68507;SDS011;55510;49.560;19.090;2024-01-16T10:27:11;7.07;;;1.87;;
68507;SDS011;55510;49.560;19.090;2024-01-16T10:30:20;13.98;;;3.95;;
68507;SDS011;55510;49.560;19.090;2024-01-16T10:33:22;9.10;;;3.85;;
68507;SDS011;55510;49.560;19.090;2024-01-16T10:36:27;18.95;;;4.03;;
68507;SDS011;55510;49.560;19.090;2024-01-16T10:39:28;14.43;;;5.77;;
68507;SDS011;55510;49.560;19.090;2024-01-16T10:42:29;13.90;;;5.47;;
68507;SDS011;55510;49.560;19.090;2024-01-16T10:45:30;10.73;;;4.30;;
68507;SDS011;55510;49.560;19.090;2024-01-16T10:48:34;22.08;;;6.63;;
68507;SDS011;55510;49.560;19.090;2024-01-16T10:51:35;14.30;;;4.63;;
68507;SDS011;55510;49.560;19.090;2024-01-16T10:54:36;22.63;;;5.23;;
68507;SDS011;55510;49.560;19.090;2024-01-16T10:57:41;5.97;;;1.88;;
68507;SDS011;55510;49.560;19.090;2024-01-16T11:00:42;7.73;;;2.33;;
68507;SDS011;55510;49.560;19.090;2024-01-16T11:03:48;6.47;;;1.53;;
68507;SDS011;55510;49.560;19.090;2024-01-16T11:06:54;8.18;;;2.15;;
68507;SDS011;55510;49.560;19.090;2024-01-16T11:09:55;9.35;;;3.38;;
68507;SDS011;55510;49.560;19.090;2024-01-16T11:12:56;9.20;;;2.97;;
68507;SDS011;55510;49.560;19.090;2024-01-16T11:16:04;11.10;;;3.93;;
68507;SDS011;55510;49.560;19.090;2024-01-16T11:19:09;7.90;;;2.40;;
68507;SDS011;55510;49.560;19.090;2024-01-16T11:22:11;4.85;;;1.90;;
68507;SDS011;55510;49.560;19.090;2024-01-16T11:25:13;6.20;;;1.60;;
68507;SDS011;55510;49.560;19.090;2024-01-16T11:28:18;12.82;;;3.47;;
68507;SDS011;55510;49.560;19.090;2024-01-16T11:31:32;6.13;;;2.00;;
68507;SDS011;55510;49.560;19.090;2024-01-16T11:37:41;7.68;;;3.95;;
68507;SDS011;55510;49.560;19.090;2024-01-16T11:40:43;8.07;;;2.78;;
68507;SDS011;55510;49.560;19.090;2024-01-16T11:43:44;6.10;;;2.17;;
68507;SDS011;55510;49.560;19.090;2024-01-16T11:47:00;5.35;;;1.73;;
68507;SDS011;55510;49.560;19.090;2024-01-16T11:50:09;5.13;;;2.10;;
68507;SDS011;55510;49.560;19.090;2024-01-16T11:53:28;8.30;;;2.43;;
68507;SDS011;55510;49.560;19.090;2024-01-16T11:56:38;8.70;;;2.63;;
68507;SDS011;55510;49.560;19.090;2024-01-16T11:59:54;8.23;;;3.30;;
68507;SDS011;55510;49.560;19.090;2024-01-16T12:02:58;9.20;;;3.33;;
68507;SDS011;55510;49.560;19.090;2024-01-16T12:06:03;8.93;;;2.70;;
68507;SDS011;55510;49.560;19.090;2024-01-16T12:12:15;10.27;;;3.75;;
68507;SDS011;55510;49.560;19.090;2024-01-16T12:15:16;5.38;;;1.23;;
68507;SDS011;55510;49.560;19.090;2024-01-16T12:18:19;6.45;;;1.98;;
68507;SDS011;55510;49.560;19.090;2024-01-16T12:21:19;7.00;;;2.87;;
68507;SDS011;55510;49.560;19.090;2024-01-16T12:24:20;9.85;;;2.30;;
68507;SDS011;55510;49.560;19.090;2024-01-16T12:27:20;7.17;;;2.37;;
68507;SDS011;55510;49.560;19.090;2024-01-16T12:30:23;6.28;;;2.33;;
68507;SDS011;55510;49.560;19.090;2024-01-16T12:33:25;8.25;;;2.63;;
68507;SDS011;55510;49.560;19.090;2024-01-16T12:36:26;6.53;;;1.47;;
68507;SDS011;55510;49.560;19.090;2024-01-16T12:39:26;7.00;;;2.20;;
68507;SDS011;55510;49.560;19.090;2024-01-16T12:42:28;10.17;;;3.40;;
68507;SDS011;55510;49.560;19.090;2024-01-16T12:45:29;8.20;;;1.95;;
68507;SDS011;55510;49.560;19.090;2024-01-16T12:48:31;6.63;;;1.52;;
68507;SDS011;55510;49.560;19.090;2024-01-16T12:51:32;6.27;;;1.97;;
68507;SDS011;55510;49.560;19.090;2024-01-16T12:54:33;7.68;;;2.30;;
68507;SDS011;55510;49.560;19.090;2024-01-16T12:57:33;10.50;;;2.00;;
68507;SDS011;55510;49.560;19.090;2024-01-16T13:00:34;6.90;;;1.95;;
68507;SDS011;55510;49.560;19.090;2024-01-16T13:03:35;5.33;;;1.00;;
68507;SDS011;55510;49.560;19.090;2024-01-16T13:06:36;4.25;;;0.88;;
68507;SDS011;55510;49.560;19.090;2024-01-16T13:09:37;6.57;;;1.27;;
68507;SDS011;55510;49.560;19.090;2024-01-16T13:12:38;4.47;;;0.80;;
68507;SDS011;55510;49.560;19.090;2024-01-16T13:15:38;7.57;;;2.70;;
68507;SDS011;55510;49.560;19.090;2024-01-16T13:18:40;6.47;;;2.70;;
68507;SDS011;55510;49.560;19.090;2024-01-16T13:21:40;5.55;;;2.22;;
68507;SDS011;55510;49.560;19.090;2024-01-16T13:24:41;5.57;;;1.93;;
68507;SDS011;55510;49.560;19.090;2024-01-16T13:27:42;6.03;;;1.27;;
68507;SDS011;55510;49.560;19.090;2024-01-16T13:30:44;6.72;;;1.73;;
68507;SDS011;55510;49.560;19.090;2024-01-16T13:33:46;4.70;;;1.40;;
68507;SDS011;55510;49.560;19.090;2024-01-16T13:36:48;14.13;;;5.22;;
68507;SDS011;55510;49.560;19.090;2024-01-16T13:39:51;15.38;;;8.00;;
68507;SDS011;55510;49.560;19.090;2024-01-16T13:42:52;8.85;;;4.13;;
68507;SDS011;55510;49.560;19.090;2024-01-16T13:45:52;6.03;;;2.00;;
68507;SDS011;55510;49.560;19.090;2024-01-16T13:48:53;5.17;;;1.43;;
68507;SDS011;55510;49.560;19.090;2024-01-16T13:51:54;7.93;;;2.33;;
68507;SDS011;55510;49.560;19.090;2024-01-16T13:54:55;13.35;;;5.10;;
68507;SDS011;55510;49.560;19.090;2024-01-16T13:57:57;14.73;;;6.33;;
68507;SDS011;55510;49.560;19.090;2024-01-16T14:00:58;19.93;;;6.40;;
68507;SDS011;55510;49.560;19.090;2024-01-16T14:03:59;10.80;;;3.60;;
68507;SDS011;55510;49.560;19.090;2024-01-16T14:07:00;50.73;;;20.80;;
68507;SDS011;55510;49.560;19.090;2024-01-16T14:10:01;15.13;;;5.57;;
68507;SDS011;55510;49.560;19.090;2024-01-16T14:13:03;15.77;;;5.57;;
68507;SDS011;55510;49.560;19.090;2024-01-16T14:16:04;12.93;;;4.55;;
68507;SDS011;55510;49.560;19.090;2024-01-16T14:19:05;10.05;;;3.85;;
68507;SDS011;55510;49.560;19.090;2024-01-16T14:22:07;10.30;;;3.60;;
68507;SDS011;55510;49.560;19.090;2024-01-16T14:25:08;18.87;;;7.77;;
68507;SDS011;55510;49.560;19.090;2024-01-16T14:28:10;36.50;;;14.68;;
68507;SDS011;55510;49.560;19.090;2024-01-16T14:31:12;63.25;;;17.88;;
68507;SDS011;55510;49.560;19.090;2024-01-16T14:34:13;65.50;;;18.70;;
68507;SDS011;55510;49.560;19.090;2024-01-16T14:37:13;60.38;;;24.10;;
68507;SDS011;55510;49.560;19.090;2024-01-16T14:40:16;28.63;;;12.30;;
68507;SDS011;55510;49.560;19.090;2024-01-16T14:43:27;30.23;;;9.00;;
68507;SDS011;55510;49.560;19.090;2024-01-16T14:46:28;28.00;;;7.35;;
68507;SDS011;55510;49.560;19.090;2024-01-16T14:49:29;33.43;;;10.93;;
68507;SDS011;55510;49.560;19.090;2024-01-16T14:52:32;31.95;;;9.68;;
68507;SDS011;55510;49.560;19.090;2024-01-16T14:55:33;26.00;;;8.82;;
68507;SDS011;55510;49.560;19.090;2024-01-16T14:58:33;22.53;;;7.80;;
68507;SDS011;55510;49.560;19.090;2024-01-16T15:01:37;16.92;;;6.18;;
68507;SDS011;55510;49.560;19.090;2024-01-16T15:04:38;14.40;;;5.40;;
68507;SDS011;55510;49.560;19.090;2024-01-16T15:07:40;37.63;;;11.00;;
68507;SDS011;55510;49.560;19.090;2024-01-16T15:10:42;31.13;;;10.13;;
68507;SDS011;55510;49.560;19.090;2024-01-16T15:13:43;28.57;;;9.07;;
68507;SDS011;55510;49.560;19.090;2024-01-16T15:16:45;32.95;;;11.70;;
68507;SDS011;55510;49.560;19.090;2024-01-16T15:19:46;35.38;;;11.65;;
68507;SDS011;55510;49.560;19.090;2024-01-16T15:22:46;29.83;;;11.67;;
68507;SDS011;55510;49.560;19.090;2024-01-16T15:25:53;29.33;;;10.55;;
68507;SDS011;55510;49.560;19.090;2024-01-16T15:28:55;34.85;;;11.65;;
68507;SDS011;55510;49.560;19.090;2024-01-16T15:31:57;26.55;;;9.50;;
68507;SDS011;55510;49.560;19.090;2024-01-16T15:34:59;49.13;;;18.00;;
68507;SDS011;55510;49.560;19.090;2024-01-16T15:38:00;22.97;;;7.83;;
68507;SDS011;55510;49.560;19.090;2024-01-16T15:41:02;24.83;;;8.70;;
68507;SDS011;55510;49.560;19.090;2024-01-16T15:44:04;23.92;;;8.38;;
68507;SDS011;55510;49.560;19.090;2024-01-16T15:47:06;27.60;;;11.20;;
68507;SDS011;55510;49.560;19.090;2024-01-16T15:50:07;18.17;;;11.27;;
68507;SDS011;55510;49.560;19.090;2024-01-16T15:53:08;14.53;;;7.10;;
68507;SDS011;55510;49.560;19.090;2024-01-16T15:56:10;19.85;;;8.00;;
68507;SDS011;55510;49.560;19.090;2024-01-16T15:59:10;24.73;;;11.60;;
68507;SDS011;55510;49.560;19.090;2024-01-16T16:02:12;20.87;;;8.00;;
68507;SDS011;55510;49.560;19.090;2024-01-16T16:05:12;29.95;;;13.18;;
68507;SDS011;55510;49.560;19.090;2024-01-16T16:08:13;47.55;;;14.85;;
68507;SDS011;55510;49.560;19.090;2024-01-16T16:11:15;55.40;;;15.47;;
68507;SDS011;55510;49.560;19.090;2024-01-16T16:14:16;49.15;;;16.88;;
68507;SDS011;55510;49.560;19.090;2024-01-16T16:17:17;47.25;;;17.08;;
68507;SDS011;55510;49.560;19.090;2024-01-16T16:20:18;52.23;;;18.40;;
68507;SDS011;55510;49.560;19.090;2024-01-16T16:23:24;24.50;;;8.50;;
68507;SDS011;55510;49.560;19.090;2024-01-16T16:26:28;32.05;;;12.93;;
68507;SDS011;55510;49.560;19.090;2024-01-16T16:29:38;34.17;;;12.48;;
68507;SDS011;55510;49.560;19.090;2024-01-16T16:32:39;40.37;;;15.30;;
68507;SDS011;55510;49.560;19.090;2024-01-16T16:35:40;42.50;;;13.30;;
68507;SDS011;55510;49.560;19.090;2024-01-16T16:38:42;32.60;;;10.75;;
68507;SDS011;55510;49.560;19.090;2024-01-16T16:41:42;41.70;;;12.43;;
68507;SDS011;55510;49.560;19.090;2024-01-16T16:44:43;35.47;;;11.82;;
68507;SDS011;55510;49.560;19.090;2024-01-16T16:47:43;45.47;;;15.93;;
68507;SDS011;55510;49.560;19.090;2024-01-16T16:50:45;41.55;;;10.75;;
68507;SDS011;55510;49.560;19.090;2024-01-16T16:53:45;46.67;;;12.60;;
68507;SDS011;55510;49.560;19.090;2024-01-16T16:56:47;38.28;;;16.08;;
68507;SDS011;55510;49.560;19.090;2024-01-16T16:59:47;38.70;;;14.70;;
68507;SDS011;55510;49.560;19.090;2024-01-16T17:02:48;30.42;;;11.90;;
68507;SDS011;55510;49.560;19.090;2024-01-16T17:05:48;26.20;;;9.87;;
68507;SDS011;55510;49.560;19.090;2024-01-16T17:08:50;23.05;;;10.02;;
68507;SDS011;55510;49.560;19.090;2024-01-16T17:11:51;44.63;;;16.98;;
68507;SDS011;55510;49.560;19.090;2024-01-16T17:14:52;48.87;;;17.67;;
68507;SDS011;55510;49.560;19.090;2024-01-16T17:17:54;39.00;;;13.50;;
68507;SDS011;55510;49.560;19.090;2024-01-16T17:20:55;46.13;;;15.48;;
68507;SDS011;55510;49.560;19.090;2024-01-16T17:23:56;41.03;;;15.23;;
68507;SDS011;55510;49.560;19.090;2024-01-16T17:26:57;17.10;;;6.80;;
68507;SDS011;55510;49.560;19.090;2024-01-16T17:30:00;22.33;;;8.57;;
68507;SDS011;55510;49.560;19.090;2024-01-16T17:33:01;16.73;;;7.20;;
68507;SDS011;55510;49.560;19.090;2024-01-16T17:36:03;13.03;;;3.27;;
68507;SDS011;55510;49.560;19.090;2024-01-16T17:39:10;18.02;;;4.32;;
68507;SDS011;55510;49.560;19.090;2024-01-16T17:42:11;16.77;;;4.73;;
68507;SDS011;55510;49.560;19.090;2024-01-16T17:45:12;17.58;;;5.22;;
68507;SDS011;55510;49.560;19.090;2024-01-16T17:48:12;35.33;;;12.17;;
68507;SDS011;55510;49.560;19.090;2024-01-16T17:51:13;30.35;;;11.20;;
68507;SDS011;55510;49.560;19.090;2024-01-16T17:54:14;24.33;;;7.72;;
68507;SDS011;55510;49.560;19.090;2024-01-16T17:57:16;28.57;;;9.97;;
68507;SDS011;55510;49.560;19.090;2024-01-16T18:00:17;26.85;;;10.27;;
68507;SDS011;55510;49.560;19.090;2024-01-16T18:03:18;33.40;;;11.07;;
68507;SDS011;55510;49.560;19.090;2024-01-16T18:06:21;65.05;;;17.92;;
68507;SDS011;55510;49.560;19.090;2024-01-16T18:09:22;204.30;;;48.80;;
68507;SDS011;55510;49.560;19.090;2024-01-16T18:12:28;131.43;;;36.97;;
68507;SDS011;55510;49.560;19.090;2024-01-16T18:15:31;55.92;;;18.95;;
68507;SDS011;55510;49.560;19.090;2024-01-16T18:18:32;72.65;;;20.58;;
68507;SDS011;55510;49.560;19.090;2024-01-16T18:21:33;62.90;;;17.37;;
68507;SDS011;55510;49.560;19.090;2024-01-16T18:24:35;91.05;;;41.05;;
68507;SDS011;55510;49.560;19.090;2024-01-16T18:27:42;55.67;;;28.60;;
68507;SDS011;55510;49.560;19.090;2024-01-16T18:30:47;41.70;;;17.65;;
68507;SDS011;55510;49.560;19.090;2024-01-16T18:33:48;34.33;;;15.70;;
68507;SDS011;55510;49.560;19.090;2024-01-16T18:36:51;30.10;;;14.17;;
68507;SDS011;55510;49.560;19.090;2024-01-16T18:39:54;31.10;;;12.98;;
68507;SDS011;55510;49.560;19.090;2024-01-16T18:42:54;23.27;;;9.30;;
68507;SDS011;55510;49.560;19.090;2024-01-16T18:45:55;46.40;;;16.05;;
68507;SDS011;55510;49.560;19.090;2024-01-16T18:48:56;35.60;;;12.98;;
68507;SDS011;55510;49.560;19.090;2024-01-16T18:51:57;70.70;;;22.77;;
68507;SDS011;55510;49.560;19.090;2024-01-16T18:55:00;62.33;;;22.27;;
68507;SDS011;55510;49.560;19.090;2024-01-16T18:58:03;60.20;;;20.08;;
68507;SDS011;55510;49.560;19.090;2024-01-16T19:01:04;54.38;;;20.33;;
68507;SDS011;55510;49.560;19.090;2024-01-16T19:04:05;46.43;;;17.40;;
68507;SDS011;55510;49.560;19.090;2024-01-16T19:07:06;46.90;;;17.95;;
68507;SDS011;55510;49.560;19.090;2024-01-16T19:10:12;41.20;;;15.75;;
68507;SDS011;55510;49.560;19.090;2024-01-16T19:13:14;40.77;;;14.87;;
68507;SDS011;55510;49.560;19.090;2024-01-16T19:16:16;39.30;;;13.60;;
68507;SDS011;55510;49.560;19.090;2024-01-16T19:19:16;39.08;;;15.48;;
68507;SDS011;55510;49.560;19.090;2024-01-16T19:22:17;37.20;;;13.93;;
68507;SDS011;55510;49.560;19.090;2024-01-16T19:25:18;38.28;;;13.93;;
68507;SDS011;55510;49.560;19.090;2024-01-16T19:28:18;36.20;;;12.60;;
68507;SDS011;55510;49.560;19.090;2024-01-16T19:31:19;46.73;;;16.97;;
68507;SDS011;55510;49.560;19.090;2024-01-16T19:34:20;56.60;;;19.13;;
68507;SDS011;55510;49.560;19.090;2024-01-16T19:37:20;48.50;;;16.67;;
68507;SDS011;55510;49.560;19.090;2024-01-16T19:40:21;98.60;;;33.13;;
68507;SDS011;55510;49.560;19.090;2024-01-16T19:43:24;129.52;;;41.70;;
68507;SDS011;55510;49.560;19.090;2024-01-16T19:46:25;144.77;;;47.00;;
68507;SDS011;55510;49.560;19.090;2024-01-16T19:49:25;155.70;;;50.78;;
68507;SDS011;55510;49.560;19.090;2024-01-16T19:52:27;191.17;;;58.77;;
68507;SDS011;55510;49.560;19.090;2024-01-16T19:55:27;182.20;;;61.25;;
68507;SDS011;55510;49.560;19.090;2024-01-16T19:58:29;271.37;;;83.77;;
68507;SDS011;55510;49.560;19.090;2024-01-16T20:01:30;238.93;;;72.20;;
68507;SDS011;55510;49.560;19.090;2024-01-16T20:04:32;482.95;;;145.93;;
68507;SDS011;55510;49.560;19.090;2024-01-16T20:07:33;380.60;;;100.38;;
68507;SDS011;55510;49.560;19.090;2024-01-16T20:10:34;320.03;;;86.07;;
68507;SDS011;55510;49.560;19.090;2024-01-16T20:13:40;103.55;;;40.67;;
